Etusivu
METAR-TAF:

METAR-TAF

Lentoasemat :

Henri Coandăn lentoasema

Bukarest, Romania

Leveyspiiri: 44-33N, Pituuspiiri: 026-06E, korkeus merenpinnasta: 95 m

Tämänhetkinen sää

Tämä raportti tehtiin 27 minuuttia sitten, kello 07.00 UTC
Tuuli 6 kn pohjoisesta/koillisesta, vaihdellen pohjoisen ja idän välillä
Lämpötila 7°C
Kosteus 21%
Ilmanpaine 1018 hPa
Näkyvyys 10 km tai enemmän
ei pilviä alle 1500 m:ssä eikä cumulonimbus-pilviä

METAR: LROP 020700Z 03006KT 350V100 CAVOK 07/M14 Q1018 NOSIG

Aika: 10:27 (07:27 UTC)

Sääennuste

Tämä raportti tehtiin 2 tuntia ja 27 minuuttia sitten, kello 05.00 UTC
Ennuste voimassa 02. päivästä klo 06 UTC - 03. päivään klo 06 UTC
Tuuli 4 kn eri suunnista
Näkyvyys 10 km tai enemmän
ei pilviä alle 1500 m:ssä eikä cumulonimbus-pilviä

TAF: LROP 020500Z 0206/0306 VRB04KT CAVOK

Säähavainnot ja -ennusteet yli 4000 lentoasemalta (METAR- ja TAF-raportit).

Käytössä olevat sääasemat on merkitty karttaan keltaisilla ja punaisilla pisteillä.

Aseta hiiri pisteen päälle nähdäksesi sääaseman nimen.

Klikkaa sitten nähdäksesi säähavainnot ja -ennusteet.

Kartan vaihtaminen: klikkaa mustalla rastilla varustettuja vihreitä pisteitä, niin voit zoomata sisään; viivalla varustettua vihreää pistettä, niin voit zoomata ulos tai vihreitä nuolia, niin pääset viereisille kartoille.


METAR-TAF: